createdAt,value
2023-03-19T00:02:17.915Z,59.22
2023-03-19T00:04:45.929Z,59.23
2023-03-19T00:07:12.910Z,59.37
2023-03-19T00:09:39.447Z,59.22
2023-03-19T00:12:06.172Z,59.34
2023-03-19T00:14:32.998Z,59.61
2023-03-19T00:16:59.539Z,59.66
2023-03-19T00:19:26.114Z,59.53
2023-03-19T00:21:52.615Z,59.55
2023-03-19T00:24:19.210Z,59.67
2023-03-19T00:26:45.773Z,59.81
2023-03-19T00:29:13.101Z,59.89
2023-03-19T00:31:40.179Z,59.69
2023-03-19T00:34:06.758Z,59.71
2023-03-19T00:36:34.616Z,59.96
2023-03-19T00:39:01.216Z,60.02
2023-03-19T00:41:27.676Z,59.83
2023-03-19T00:43:55.926Z,60.07
2023-03-19T00:46:23.605Z,59.85
2023-03-19T00:48:50.398Z,60.01
2023-03-19T00:51:17.071Z,59.99
2023-03-19T00:53:44.375Z,59.93
2023-03-19T00:56:13.215Z,60.09
2023-03-19T00:58:40.373Z,59.92
2023-03-19T01:01:11.945Z,59.88
2023-03-19T01:03:38.821Z,60.09
2023-03-19T01:06:06.222Z,60.01
2023-03-19T01:08:32.853Z,60.04
2023-03-19T01:11:14.473Z,60.25
2023-03-19T01:13:41.470Z,60.08
2023-03-19T01:16:08.728Z,60.23
2023-03-19T01:18:35.447Z,60.13
2023-03-19T01:21:02.328Z,60.02
2023-03-19T01:23:30.094Z,60.28
2023-03-19T01:25:57.280Z,60.28
2023-03-19T01:28:28.643Z,60.30
2023-03-19T01:30:59.435Z,60.63
2023-03-19T01:33:49.317Z,60.40
2023-03-19T01:36:22.192Z,60.63
2023-03-19T01:38:58.451Z,60.51
2023-03-19T01:41:25.275Z,60.56
2023-03-19T01:43:54.716Z,60.55
2023-03-19T01:46:41.535Z,60.69
2023-03-19T01:49:29.060Z,60.77
2023-03-19T01:52:25.533Z,60.87
2023-03-19T01:55:13.803Z,60.53
2023-03-19T01:57:59.364Z,60.85
2023-03-19T02:00:43.760Z,61.02
2023-03-19T02:03:10.774Z,61.05
2023-03-19T02:05:53.124Z,61.11
2023-03-19T02:08:23.670Z,61.06
2023-03-19T02:10:52.701Z,60.90
2023-03-19T02:13:19.398Z,61.04
2023-03-19T02:15:45.946Z,60.80
2023-03-19T02:18:12.935Z,61.05
2023-03-19T02:20:49.605Z,61.59
2023-03-19T02:23:34.425Z,61.43
2023-03-19T02:26:11.152Z,61.55
2023-03-19T02:28:42.015Z,61.58
2023-03-19T02:31:10.786Z,61.49
2023-03-19T02:33:37.953Z,61.47
2023-03-19T02:36:09.114Z,61.58
2023-03-19T02:38:38.831Z,61.53
2023-03-19T02:41:07.595Z,61.51
2023-03-19T02:43:37.348Z,61.64
2023-03-19T02:46:07.309Z,61.69
2023-03-19T02:48:33.883Z,61.50
2023-03-19T02:51:00.462Z,61.46
2023-03-19T02:53:27.026Z,61.44
2023-03-19T02:55:53.525Z,61.49
2023-03-19T02:58:20.603Z,61.51
2023-03-19T03:00:47.318Z,61.50
2023-03-19T03:03:29.041Z,61.97
2023-03-19T03:05:58.461Z,61.65
2023-03-19T03:08:25.067Z,61.88
2023-03-19T03:10:51.600Z,61.78
2023-03-19T03:13:18.212Z,61.94
2023-03-19T03:15:44.700Z,61.82
2023-03-19T03:18:11.277Z,62.06
2023-03-19T03:20:37.841Z,62.12
2023-03-19T03:23:04.541Z,61.96
2023-03-19T03:25:31.160Z,62.07
2023-03-19T03:27:57.721Z,62.07
2023-03-19T03:30:24.181Z,62.16
2023-03-19T03:32:50.805Z,62.13
2023-03-19T03:35:17.518Z,62.24
2023-03-19T03:37:43.966Z,62.18
2023-03-19T03:40:10.994Z,62.40
2023-03-19T03:42:37.620Z,62.36
2023-03-19T03:45:06.561Z,62.21
2023-03-19T03:47:33.239Z,62.30
2023-03-19T03:50:00.577Z,62.34
2023-03-19T03:52:27.985Z,62.14
2023-03-19T03:54:54.506Z,62.25
2023-03-19T03:57:21.039Z,62.26
2023-03-19T03:59:47.953Z,62.41
2023-03-19T04:02:14.486Z,62.50
2023-03-19T04:04:41.740Z,62.57
2023-03-19T04:07:08.361Z,62.60
2023-03-19T04:09:41.071Z,62.66
2023-03-19T04:12:08.138Z,62.58
2023-03-19T04:14:37.771Z,62.73
2023-03-19T04:17:05.608Z,62.90
2023-03-19T04:19:32.716Z,63.58
2023-03-19T04:21:59.588Z,63.94
2023-03-19T04:24:26.788Z,64.19
2023-03-19T04:26:53.434Z,64.90
2023-03-19T04:29:20.131Z,64.83
2023-03-19T04:31:46.841Z,64.93
2023-03-19T04:34:13.401Z,64.73
2023-03-19T04:36:40.242Z,64.84
2023-03-19T04:39:06.893Z,64.45
2023-03-19T04:41:33.788Z,64.47
2023-03-19T04:44:13.069Z,64.27
2023-03-19T04:46:40.941Z,64.26
2023-03-19T04:49:08.296Z,64.25
2023-03-19T04:51:35.116Z,64.18
2023-03-19T04:54:01.620Z,64.10
2023-03-19T04:56:28.336Z,63.94
2023-03-19T04:58:55.649Z,64.05
2023-03-19T05:01:22.470Z,63.82
2023-03-19T05:03:58.981Z,63.79
2023-03-19T05:06:25.999Z,63.88
2023-03-19T05:08:53.585Z,63.99
2023-03-19T05:11:23.027Z,63.98
2023-03-19T05:14:01.863Z,64.07
2023-03-19T05:16:35.449Z,64.09
2023-03-19T05:19:02.020Z,63.67
2023-03-19T05:21:30.187Z,62.97
2023-03-19T05:23:56.977Z,63.46
2023-03-19T05:26:25.354Z,63.36
2023-03-19T05:29:14.523Z,63.38
2023-03-19T05:31:54.144Z,63.40
2023-03-19T05:34:21.187Z,63.25
2023-03-19T05:36:48.634Z,63.43
2023-03-19T05:39:18.056Z,63.49
2023-03-19T05:41:44.805Z,63.59
2023-03-19T05:44:16.237Z,63.80
2023-03-19T05:47:00.214Z,63.84
2023-03-19T05:49:30.417Z,64.05
2023-03-19T05:51:57.241Z,64.24
2023-03-19T05:54:23.862Z,64.22
2023-03-19T05:56:57.205Z,64.30
2023-03-19T05:59:42.853Z,64.16
2023-03-19T06:02:40.803Z,64.17
2023-03-19T06:05:27.816Z,64.31
2023-03-19T06:07:58.682Z,64.28
2023-03-19T06:10:50.141Z,63.77
2023-03-19T06:13:16.620Z,63.87
2023-03-19T06:15:51.782Z,63.73
2023-03-19T06:18:37.044Z,63.62
2023-03-19T06:21:08.448Z,63.54
2023-03-19T06:23:35.284Z,63.63
2023-03-19T06:26:04.546Z,63.24
2023-03-19T06:28:35.262Z,63.36
2023-03-19T06:31:03.455Z,63.23
2023-03-19T06:33:48.345Z,63.10
2023-03-19T06:36:15.001Z,62.99
2023-03-19T06:38:41.526Z,62.87
2023-03-19T06:41:08.040Z,62.82
2023-03-19T06:43:34.598Z,62.78
2023-03-19T06:46:01.121Z,62.69
2023-03-19T06:48:27.748Z,62.58
2023-03-19T06:50:54.223Z,62.55
2023-03-19T06:53:20.852Z,62.52
2023-03-19T06:55:47.530Z,62.54
2023-03-19T06:58:14.053Z,62.41
2023-03-19T07:00:40.568Z,62.44
2023-03-19T07:03:07.152Z,62.36
2023-03-19T07:05:33.678Z,62.52
2023-03-19T07:08:00.242Z,62.57
2023-03-19T07:10:26.758Z,62.56
2023-03-19T07:12:53.340Z,62.68
2023-03-19T07:15:20.049Z,62.60
2023-03-19T07:17:46.862Z,62.59
2023-03-19T07:20:13.823Z,62.67
2023-03-19T07:22:41.081Z,62.62
2023-03-19T07:25:07.928Z,62.74
2023-03-19T07:27:34.492Z,62.63
2023-03-19T07:30:00.970Z,62.76
2023-03-19T07:32:27.421Z,62.72
2023-03-19T07:34:53.892Z,62.75
2023-03-19T07:37:22.446Z,63.05
2023-03-19T07:39:49.094Z,63.17
2023-03-19T07:42:15.622Z,63.47
2023-03-19T07:44:42.377Z,63.65
2023-03-19T07:47:22.570Z,63.75
2023-03-19T07:49:54.829Z,63.98
2023-03-19T07:52:21.394Z,64.34
2023-03-19T07:54:47.961Z,64.65
2023-03-19T07:57:14.481Z,64.75
2023-03-19T07:59:41.304Z,64.97
2023-03-19T08:02:11.726Z,64.91
2023-03-19T08:04:38.729Z,65.24
2023-03-19T08:07:05.489Z,65.25
2023-03-19T08:09:31.949Z,65.26
2023-03-19T08:11:58.407Z,65.52
2023-03-19T08:14:25.128Z,65.62
2023-03-19T08:16:51.804Z,65.77
2023-03-19T08:19:18.327Z,65.91
2023-03-19T08:21:44.782Z,65.77
2023-03-19T08:24:11.235Z,65.74
2023-03-19T08:26:37.813Z,65.68
2023-03-19T08:29:04.328Z,65.41
2023-03-19T08:31:30.984Z,65.30
2023-03-19T08:33:57.469Z,64.99
2023-03-19T08:36:23.922Z,65.11
2023-03-19T08:38:50.496Z,65.22
2023-03-19T08:41:16.947Z,65.19
2023-03-19T08:43:43.463Z,65.39
2023-03-19T08:46:09.969Z,65.41
2023-03-19T08:48:36.482Z,65.45
2023-03-19T08:51:04.083Z,65.56
2023-03-19T08:53:31.381Z,65.59
2023-03-19T08:56:00.501Z,65.50
2023-03-19T08:58:28.393Z,65.46
2023-03-19T09:01:11.000Z,63.03
2023-03-19T09:03:39.361Z,65.14
2023-03-19T09:06:08.322Z,65.02
2023-03-19T09:08:36.199Z,65.18
2023-03-19T09:11:03.936Z,65.21
2023-03-19T09:13:30.925Z,65.12
2023-03-19T09:15:57.443Z,64.96
2023-03-19T09:18:24.597Z,65.15
2023-03-19T09:20:51.891Z,65.14
2023-03-19T09:23:18.528Z,65.14
2023-03-19T09:25:45.065Z,64.88
2023-03-19T09:28:11.720Z,65.20
2023-03-19T09:30:38.938Z,65.19
2023-03-19T09:33:06.172Z,65.34
2023-03-19T09:35:33.432Z,65.21
2023-03-19T09:38:03.272Z,64.82
2023-03-19T09:40:42.665Z,63.36
2023-03-19T09:43:52.144Z,62.03
2023-03-19T09:46:23.532Z,64.38
2023-03-19T09:48:49.990Z,64.82
2023-03-19T09:51:29.466Z,61.72
2023-03-19T09:54:06.765Z,62.29
2023-03-19T09:56:33.966Z,64.05
2023-03-19T09:59:01.190Z,63.85
2023-03-19T10:01:35.646Z,59.49
2023-03-19T10:04:17.805Z,61.33
2023-03-19T10:06:44.431Z,63.42
2023-03-19T10:09:28.217Z,61.67
2023-03-19T10:12:03.522Z,61.23
2023-03-19T10:14:41.781Z,62.38
2023-03-19T10:17:16.926Z,61.68
2023-03-19T10:19:51.367Z,60.52
2023-03-19T10:22:25.764Z,60.72
2023-03-19T10:24:54.093Z,61.39
2023-03-19T10:27:22.668Z,61.83
2023-03-19T10:29:49.314Z,61.92
2023-03-19T10:32:18.851Z,60.36
2023-03-19T10:34:46.612Z,60.67
2023-03-19T10:37:13.144Z,59.64
2023-03-19T10:39:42.396Z,57.62
2023-03-19T10:42:08.962Z,58.97
2023-03-19T10:44:42.267Z,58.54
2023-03-19T10:47:14.682Z,56.59
2023-03-19T10:49:42.006Z,57.92
2023-03-19T10:52:29.238Z,57.06
2023-03-19T10:55:04.623Z,57.78
2023-03-19T10:57:31.214Z,57.66
2023-03-19T11:00:05.456Z,55.83
2023-03-19T11:02:32.310Z,56.10
2023-03-19T11:05:21.891Z,54.33
2023-03-19T11:08:34.933Z,53.98
2023-03-19T11:11:02.202Z,54.35
2023-03-19T11:13:28.804Z,54.50
2023-03-19T11:15:59.572Z,54.76
2023-03-19T11:18:36.091Z,53.92
2023-03-19T11:21:22.107Z,53.52
2023-03-19T11:24:02.421Z,52.68
2023-03-19T11:26:30.362Z,54.18
2023-03-19T11:29:03.826Z,49.82
2023-03-19T11:31:43.373Z,51.20
2023-03-19T11:34:45.298Z,51.17
2023-03-19T11:37:18.764Z,51.47
2023-03-19T11:40:22.419Z,50.67
2023-03-19T11:43:10.698Z,52.02
2023-03-19T11:46:21.803Z,51.11
2023-03-19T11:49:04.665Z,50.38
2023-03-19T11:51:39.807Z,49.86
2023-03-19T11:54:33.255Z,49.74
2023-03-19T11:57:23.125Z,48.98
2023-03-19T12:00:24.587Z,49.00
2023-03-19T12:03:06.259Z,49.56
2023-03-19T12:05:43.397Z,49.86
2023-03-19T12:08:37.704Z,50.83
2023-03-19T12:11:23.949Z,50.85
2023-03-19T12:14:09.048Z,49.67
2023-03-19T12:17:03.432Z,49.94
2023-03-19T12:19:58.159Z,48.83
2023-03-19T12:22:50.696Z,48.56
2023-03-19T12:25:30.779Z,48.05
2023-03-19T12:28:08.267Z,47.34
2023-03-19T12:30:41.996Z,48.47
2023-03-19T12:33:27.352Z,47.91
2023-03-19T12:35:56.680Z,47.30
2023-03-19T12:38:29.245Z,47.59
2023-03-19T12:41:11.238Z,47.28
2023-03-19T12:44:05.305Z,48.85
2023-03-19T12:46:46.114Z,49.92
2023-03-19T12:49:32.450Z,47.71
2023-03-19T12:52:15.020Z,48.27
2023-03-19T12:54:47.070Z,49.55
2023-03-19T12:57:47.546Z,48.73
2023-03-19T13:00:44.706Z,50.57
2023-03-19T13:03:55.547Z,48.27
2023-03-19T13:06:32.212Z,48.30
2023-03-19T13:09:02.782Z,47.45
2023-03-19T13:11:47.275Z,49.36
2023-03-19T13:14:25.249Z,47.38
2023-03-19T13:16:58.913Z,48.47
2023-03-19T13:19:46.539Z,47.77
2023-03-19T13:22:16.918Z,47.53
2023-03-19T13:24:46.121Z,47.61
2023-03-19T13:27:22.609Z,46.06
2023-03-19T13:30:00.765Z,46.62
2023-03-19T13:32:36.438Z,47.04
2023-03-19T13:35:19.187Z,46.66
2023-03-19T13:37:47.509Z,48.33
2023-03-19T13:40:40.820Z,46.93
2023-03-19T13:43:28.540Z,45.64
2023-03-19T13:46:30.595Z,46.59
2023-03-19T13:49:09.870Z,46.53
2023-03-19T13:51:36.442Z,47.36
2023-03-19T13:54:11.984Z,46.84
2023-03-19T13:56:58.590Z,47.25
2023-03-19T13:59:36.552Z,45.57
2023-03-19T14:02:21.334Z,43.99
2023-03-19T14:05:08.588Z,44.30
2023-03-19T14:07:37.165Z,45.61
2023-03-19T14:10:26.981Z,46.34
2023-03-19T14:13:09.843Z,43.24
2023-03-19T14:15:41.611Z,42.60
2023-03-19T14:18:13.945Z,43.78
2023-03-19T14:20:51.749Z,43.74
2023-03-19T14:23:36.230Z,45.21
2023-03-19T14:26:15.938Z,44.74
2023-03-19T14:28:57.321Z,45.48
2023-03-19T14:31:34.217Z,45.77
2023-03-19T14:34:26.882Z,47.03
2023-03-19T14:37:21.157Z,45.71
2023-03-19T14:40:08.136Z,45.90
2023-03-19T14:42:42.027Z,46.13
2023-03-19T14:45:25.934Z,46.35
2023-03-19T14:48:23.030Z,47.98
2023-03-19T14:51:03.138Z,47.94
2023-03-19T14:53:44.731Z,46.73
2023-03-19T14:56:19.308Z,47.76
2023-03-19T14:58:57.465Z,48.29
2023-03-19T15:01:25.774Z,48.50
2023-03-19T15:04:00.739Z,46.74
2023-03-19T15:06:33.695Z,48.19
2023-03-19T15:09:00.500Z,47.14
2023-03-19T15:11:58.275Z,46.63
2023-03-19T15:14:43.253Z,48.01
2023-03-19T15:17:24.304Z,47.32
2023-03-19T15:19:52.900Z,47.60
2023-03-19T15:22:22.250Z,47.65
2023-03-19T15:24:49.120Z,48.03
2023-03-19T15:27:23.730Z,44.67
2023-03-19T15:29:51.645Z,46.65
2023-03-19T15:32:51.750Z,45.39
2023-03-19T15:35:21.505Z,46.39
2023-03-19T15:37:52.976Z,45.62
2023-03-19T15:40:21.595Z,44.42
2023-03-19T15:42:48.293Z,44.58
2023-03-19T15:45:19.600Z,44.12
2023-03-19T15:47:57.309Z,43.07
2023-03-19T15:50:27.896Z,44.84
2023-03-19T15:52:59.085Z,44.96
2023-03-19T15:55:25.850Z,45.74
2023-03-19T15:57:55.698Z,45.23
2023-03-19T16:00:22.681Z,46.03
2023-03-19T16:02:52.284Z,45.23
2023-03-19T16:05:30.543Z,45.81
2023-03-19T16:08:02.474Z,44.75
2023-03-19T16:10:28.965Z,45.06
2023-03-19T16:12:56.388Z,44.89
2023-03-19T16:15:31.551Z,45.64
2023-03-19T16:18:21.908Z,44.29
2023-03-19T16:21:02.933Z,44.65
2023-03-19T16:23:38.298Z,45.34
2023-03-19T16:26:33.882Z,45.69
2023-03-19T16:29:17.660Z,44.66
2023-03-19T16:31:48.097Z,44.81
2023-03-19T16:34:24.370Z,44.46
2023-03-19T16:36:51.115Z,45.12
2023-03-19T16:39:36.720Z,45.16
2023-03-19T16:42:09.136Z,45.45
2023-03-19T16:44:39.979Z,45.26
2023-03-19T16:47:15.405Z,45.92
2023-03-19T16:49:41.892Z,46.85
2023-03-19T16:52:19.503Z,46.52
2023-03-19T16:54:46.358Z,47.57
2023-03-19T16:57:15.877Z,47.83
2023-03-19T16:59:43.482Z,48.13
2023-03-19T17:02:14.529Z,48.46
2023-03-19T17:04:41.204Z,48.36
2023-03-19T17:07:08.488Z,48.87
2023-03-19T17:09:35.353Z,48.98
2023-03-19T17:12:03.218Z,49.36
2023-03-19T17:14:30.790Z,49.69
2023-03-19T17:16:57.278Z,49.73
2023-03-19T17:19:35.796Z,49.46
2023-03-19T17:22:02.566Z,50.39
2023-03-19T17:24:34.637Z,50.43
2023-03-19T17:27:02.990Z,50.82
2023-03-19T17:29:30.139Z,51.28
2023-03-19T17:31:58.761Z,51.57
2023-03-19T17:34:27.685Z,51.56
2023-03-19T17:36:58.197Z,52.00
2023-03-19T17:39:26.288Z,51.82
2023-03-19T17:41:53.217Z,52.19
2023-03-19T17:44:20.178Z,52.46
2023-03-19T17:46:50.121Z,52.64
2023-03-19T17:49:23.711Z,52.59
2023-03-19T17:51:51.054Z,53.05
2023-03-19T17:54:17.953Z,53.27
2023-03-19T17:56:44.526Z,53.21
2023-03-19T17:59:11.518Z,53.35
2023-03-19T18:01:40.083Z,53.50
2023-03-19T18:04:07.139Z,53.61
2023-03-19T18:06:36.350Z,53.79
2023-03-19T18:09:03.105Z,53.76
2023-03-19T18:11:29.646Z,53.92
2023-03-19T18:13:56.172Z,54.00
2023-03-19T18:16:31.488Z,53.68
2023-03-19T18:19:00.398Z,53.95
2023-03-19T18:21:30.573Z,53.88
2023-03-19T18:23:57.121Z,54.03
2023-03-19T18:26:24.465Z,54.14
2023-03-19T18:28:51.064Z,54.32
2023-03-19T18:31:26.262Z,54.17
2023-03-19T18:34:05.218Z,54.53
2023-03-19T18:36:33.014Z,54.46
2023-03-19T18:38:59.954Z,54.64
2023-03-19T18:41:28.002Z,54.79
2023-03-19T18:44:04.359Z,54.85
2023-03-19T18:46:32.609Z,55.02
2023-03-19T18:49:01.375Z,55.15
2023-03-19T18:51:28.363Z,55.16
2023-03-19T18:53:55.606Z,55.41
2023-03-19T18:56:31.546Z,55.49
2023-03-19T18:58:59.190Z,55.65
2023-03-19T19:01:27.099Z,55.67
2023-03-19T19:03:54.195Z,55.73
2023-03-19T19:06:44.078Z,55.89
2023-03-19T19:09:12.834Z,55.94
2023-03-19T19:11:41.301Z,56.17
2023-03-19T19:14:17.341Z,56.37
2023-03-19T19:16:44.232Z,56.22
2023-03-19T19:19:18.008Z,56.78
2023-03-19T19:21:45.061Z,56.52
2023-03-19T19:24:11.697Z,56.67
2023-03-19T19:26:38.368Z,56.72
2023-03-19T19:29:05.489Z,56.92
2023-03-19T19:31:34.208Z,57.04
2023-03-19T19:34:00.753Z,57.22
2023-03-19T19:36:28.467Z,57.37
2023-03-19T19:38:55.356Z,57.63
2023-03-19T19:41:26.320Z,57.69
2023-03-19T19:43:54.109Z,57.63
2023-03-19T19:46:23.071Z,57.78
2023-03-19T19:48:50.050Z,57.84
2023-03-19T19:51:22.948Z,57.93
2023-03-19T19:53:50.134Z,58.04
2023-03-19T19:56:22.140Z,58.38
2023-03-19T19:58:51.399Z,58.20
2023-03-19T20:01:24.021Z,58.59
2023-03-19T20:03:51.093Z,58.42
2023-03-19T20:06:18.429Z,58.36
2023-03-19T20:08:45.964Z,58.49
2023-03-19T20:11:24.062Z,58.98
2023-03-19T20:13:53.027Z,58.64
2023-03-19T20:16:21.428Z,58.75
2023-03-19T20:18:48.558Z,58.61
2023-03-19T20:21:15.283Z,58.83
2023-03-19T20:23:43.437Z,58.99
2023-03-19T20:26:20.752Z,58.74
2023-03-19T20:28:47.802Z,59.10
2023-03-19T20:31:22.327Z,59.29
2023-03-19T20:33:48.851Z,59.29
2023-03-19T20:36:15.410Z,59.32
2023-03-19T20:38:42.256Z,59.43
2023-03-19T20:41:19.810Z,59.49
2023-03-19T20:43:46.808Z,59.51
2023-03-19T20:46:13.490Z,59.40
2023-03-19T20:48:40.182Z,59.92
2023-03-19T20:51:06.788Z,59.93
2023-03-19T20:53:33.368Z,59.98
2023-03-19T20:56:00.107Z,60.20
2023-03-19T20:58:31.023Z,60.44
2023-03-19T21:00:58.556Z,60.55
2023-03-19T21:03:28.052Z,60.52
2023-03-19T21:05:58.976Z,60.50
2023-03-19T21:08:35.650Z,60.45
2023-03-19T21:11:02.112Z,60.59
2023-03-19T21:13:29.445Z,60.54
2023-03-19T21:15:56.476Z,60.47
2023-03-19T21:18:23.061Z,60.46
2023-03-19T21:20:53.297Z,60.31
2023-03-19T21:23:31.911Z,59.94
2023-03-19T21:26:04.867Z,60.28
2023-03-19T21:28:36.664Z,60.10
2023-03-19T21:31:03.758Z,60.28
2023-03-19T21:33:34.046Z,60.20
2023-03-19T21:36:02.043Z,60.42
2023-03-19T21:38:29.167Z,60.23
2023-03-19T21:40:59.624Z,59.92
2023-03-19T21:43:33.236Z,59.77
2023-03-19T21:46:04.177Z,59.97
2023-03-19T21:48:38.181Z,60.04
2023-03-19T21:51:04.815Z,60.16
2023-03-19T21:53:31.641Z,60.35
2023-03-19T21:55:59.769Z,60.33
2023-03-19T21:58:30.788Z,59.90
2023-03-19T22:00:57.940Z,60.55
2023-03-19T22:03:24.923Z,60.43
2023-03-19T22:05:52.624Z,60.73
2023-03-19T22:08:21.224Z,60.73
2023-03-19T22:10:52.362Z,60.77
2023-03-19T22:13:21.920Z,60.84
2023-03-19T22:15:51.394Z,60.98
2023-03-19T22:18:17.922Z,60.93
2023-03-19T22:20:45.386Z,60.84
2023-03-19T22:23:12.748Z,60.85
2023-03-19T22:25:42.883Z,60.79
2023-03-19T22:28:34.038Z,60.85
2023-03-19T22:31:03.066Z,61.08
2023-03-19T22:33:29.809Z,61.17
2023-03-19T22:35:56.456Z,61.46
2023-03-19T22:38:23.242Z,61.66
2023-03-19T22:40:54.813Z,61.97
2023-03-19T22:43:28.478Z,62.03
2023-03-19T22:45:58.850Z,61.85
2023-03-19T22:48:25.409Z,62.17
2023-03-19T22:50:51.927Z,62.25
2023-03-19T22:53:33.489Z,62.78
2023-03-19T22:56:01.061Z,62.54
2023-03-19T22:58:28.192Z,62.58
2023-03-19T23:00:55.531Z,62.56
2023-03-19T23:03:27.589Z,63.37
2023-03-19T23:06:10.493Z,62.97
2023-03-19T23:08:40.989Z,62.76
2023-03-19T23:11:07.421Z,62.75
2023-03-19T23:13:34.768Z,62.89
2023-03-19T23:16:02.057Z,62.85
2023-03-19T23:18:36.262Z,63.27
2023-03-19T23:21:03.700Z,63.26
2023-03-19T23:23:30.762Z,63.23
2023-03-19T23:25:57.597Z,63.33
2023-03-19T23:28:32.949Z,64.38
2023-03-19T23:31:01.437Z,64.02
2023-03-19T23:33:28.571Z,63.91
2023-03-19T23:35:55.054Z,64.30
2023-03-19T23:38:22.307Z,64.33
2023-03-19T23:40:51.344Z,65.15
2023-03-19T23:43:25.343Z,65.87
2023-03-19T23:45:53.141Z,64.67
2023-03-19T23:48:22.863Z,64.85
2023-03-19T23:50:49.359Z,64.98
2023-03-19T23:53:21.246Z,65.52
2023-03-19T23:55:53.422Z,65.32
2023-03-19T23:58:21.054Z,65.14
